Time;durP1;ratioP1;P1;durP2;ratioP2;P2;SDS_P1;SDS_P2;PMS_P1;PMS_P2;Temp;Humidity;BMP_temperature;BMP_pressure;BME280_temperature;BME280_humidity;BME280_pressure;Samples;Min_cycle;Max_cycle;Signal;HPM_P1;HPM_P2
2021/03/09 00:01:08;;;;;;;16.35;7.25;;;12.60;48.90;;;;;;6135534;29;20051;-83
2021/03/09 00:04:09;;;;;;;23.55;7.85;;;12.60;48.90;;;;;;6123241;29;20473;-82
2021/03/09 00:07:11;;;;;;;15.70;6.90;;;12.60;49.00;;;;;;6143610;29;20038;-82
2021/03/09 00:10:12;;;;;;;23.10;8.13;;;12.70;49.10;;;;;;6147309;28;20627;-82
2021/03/09 00:13:13;;;;;;;17.98;6.78;;;12.70;49.10;;;;;;6116326;29;20089;-82
2021/03/09 00:16:14;;;;;;;17.02;7.65;;;12.60;49.10;;;;;;6124035;29;20035;-83
2021/03/09 00:19:15;;;;;;;19.23;6.57;;;12.60;49.20;;;;;;6135820;29;20043;-82
2021/03/09 00:22:16;;;;;;;15.88;7.15;;;12.60;49.30;;;;;;6122640;29;20115;-82
2021/03/09 00:25:18;;;;;;;17.17;6.95;;;12.60;49.40;;;;;;6127728;29;20046;-83
2021/03/09 00:28:21;;;;;;;18.25;7.72;;;12.50;49.40;;;;;;6119264;28;20098;-82
2021/03/09 00:31:22;;;;;;;19.33;7.38;;;12.50;49.30;;;;;;6151225;28;20043;-82
2021/03/09 00:34:23;;;;;;;22.90;7.70;;;12.50;49.30;;;;;;6125202;29;20043;-82
2021/03/09 00:37:24;;;;;;;20.85;7.15;;;12.50;49.40;;;;;;6143151;28;20102;-81
2021/03/09 00:40:25;;;;;;;27.60;7.63;;;12.40;49.50;;;;;;6137129;28;20039;-82
2021/03/09 00:43:26;;;;;;;20.92;7.05;;;12.40;49.70;;;;;;6158558;28;20035;-82
2021/03/09 00:46:27;;;;;;;22.50;8.07;;;12.30;49.60;;;;;;6184446;28;20041;-83
2021/03/09 00:49:28;;;;;;;13.50;6.72;;;12.30;49.70;;;;;;6150979;29;20038;-82
2021/03/09 00:52:29;;;;;;;20.58;7.47;;;12.20;49.70;;;;;;6121884;29;20039;-82
2021/03/09 00:55:32;;;;;;;21.20;7.57;;;12.20;49.70;;;;;;6134488;28;20051;-83
2021/03/09 00:58:33;;;;;;;25.77;8.00;;;12.10;49.70;;;;;;6130181;29;20045;-82
2021/03/09 01:01:34;;;;;;;21.70;7.30;;;12.00;49.80;;;;;;6134250;29;20068;-83
2021/03/09 01:04:35;;;;;;;19.13;7.65;;;12.00;50.00;;;;;;6133499;29;20055;-82
2021/03/09 01:07:35;;;;;;;18.40;6.85;;;11.90;50.20;;;;;;6150719;28;20045;-82
2021/03/09 01:10:37;;;;;;;19.05;7.20;;;11.80;50.30;;;;;;6144022;28;20046;-82
2021/03/09 01:13:38;;;;;;;21.05;7.18;;;11.70;50.40;;;;;;6161582;28;20035;-82
2021/03/09 01:16:39;;;;;;;18.90;7.63;;;11.60;50.50;;;;;;6170531;28;20043;-82
2021/03/09 01:19:40;;;;;;;16.33;6.82;;;11.60;50.60;;;;;;6156861;28;20027;-83
2021/03/09 01:22:41;;;;;;;21.98;8.13;;;11.60;50.70;;;;;;6146499;29;20031;-82
2021/03/09 01:25:43;;;;;;;21.88;7.45;;;11.50;50.80;;;;;;6139646;29;20031;-82
2021/03/09 01:28:44;;;;;;;18.17;7.40;;;11.50;50.80;;;;;;6151523;28;20091;-82
2021/03/09 01:31:45;;;;;;;22.45;8.18;;;11.50;50.90;;;;;;6140212;28;20372;-83
2021/03/09 01:34:46;;;;;;;16.00;7.00;;;11.50;51.00;;;;;;6120769;29;20578;-82
2021/03/09 01:37:47;;;;;;;19.33;7.63;;;11.40;51.00;;;;;;6102941;29;20127;-82
2021/03/09 01:40:48;;;;;;;25.08;7.38;;;11.40;51.10;;;;;;6145083;29;20118;-82
2021/03/09 01:43:49;;;;;;;20.05;7.72;;;11.30;51.20;;;;;;6151359;28;20031;-83
2021/03/09 01:46:50;;;;;;;22.70;8.15;;;11.30;51.30;;;;;;6151166;28;20508;-83
2021/03/09 01:49:52;;;;;;;14.70;6.90;;;11.30;51.30;;;;;;6122178;28;20461;-83
2021/03/09 01:52:54;;;;;;;19.02;7.43;;;11.30;51.30;;;;;;6139273;28;20043;-82
2021/03/09 01:55:56;;;;;;;18.98;6.63;;;11.20;51.40;;;;;;6142440;29;20468;-83
2021/03/09 01:59:00;;;;;;;18.33;7.88;;;11.30;51.50;;;;;;6143228;28;20043;-82
2021/03/09 02:02:01;;;;;;;22.25;7.68;;;11.30;51.50;;;;;;6122366;29;20441;-83
2021/03/09 02:05:10;;;;;;;21.67;7.28;;;11.30;51.50;;;;;;6156819;28;20058;-83
2021/03/09 02:08:12;;;;;;;18.67;6.95;;;11.30;51.50;;;;;;6112857;29;20127;-83
2021/03/09 02:11:36;;;;;;;21.40;6.65;;;11.20;51.60;;;;;;6128145;29;20036;-82
2021/03/09 02:15:07;;;;;;;17.65;7.10;;;11.20;51.70;;;;;;6042059;29;20068;-82
2021/03/09 02:18:30;;;;;;;21.05;7.55;;;11.10;51.80;;;;;;6032749;29;20088;-81
2021/03/09 02:21:42;;;;;;;22.30;7.45;;;11.10;51.90;;;;;;6041289;29;20104;-81
2021/03/09 02:25:02;;;;;;;18.35;7.88;;;11.00;52.10;;;;;;6054062;29;20550;-81
2021/03/09 02:28:21;;;;;;;16.48;6.63;;;11.00;52.30;;;;;;6039630;29;20072;-82
2021/03/09 02:31:28;;;;;;;18.00;6.97;;;10.90;52.40;;;;;;6050812;29;20072;-82
2021/03/09 02:34:36;;;;;;;18.88;7.68;;;10.80;52.70;;;;;;6024925;29;20045;-81
2021/03/09 02:37:40;;;;;;;18.05;7.38;;;10.80;52.90;;;;;;6025068;29;20069;-82
2021/03/09 02:40:41;;;;;;;22.98;7.82;;;10.80;53.30;;;;;;6042937;29;20037;-82
2021/03/09 02:43:43;;;;;;;18.65;7.43;;;10.70;52.90;;;;;;6031807;29;20033;-82
2021/03/09 02:46:47;;;;;;;23.50;8.57;;;10.70;52.90;;;;;;6032810;29;20033;-82
2021/03/09 02:49:49;;;;;;;30.88;7.97;;;10.70;53.00;;;;;;6040633;29;20048;-81
2021/03/09 02:53:02;;;;;;;22.05;8.20;;;10.70;52.90;;;;;;6119925;29;20038;-82
2021/03/09 02:56:06;;;;;;;20.17;8.32;;;10.70;53.00;;;;;;6125520;29;20477;-83
2021/03/09 02:59:12;;;;;;;18.15;7.95;;;10.70;53.10;;;;;;6118187;29;20047;-82
2021/03/09 03:02:16;;;;;;;17.70;7.18;;;10.70;53.20;;;;;;6128770;29;20126;-82
2021/03/09 03:05:18;;;;;;;24.60;8.75;;;10.60;53.30;;;;;;6115040;29;20063;-82
2021/03/09 03:08:21;;;;;;;14.43;7.35;;;10.60;53.40;;;;;;6148321;28;20501;-82
2021/03/09 03:11:22;;;;;;;20.30;8.20;;;10.70;53.50;;;;;;6109931;29;20071;-82
2021/03/09 03:14:24;;;;;;;24.85;7.38;;;10.60;53.60;;;;;;6127342;29;20449;-82
2021/03/09 03:17:28;;;;;;;28.23;8.35;;;10.60;53.80;;;;;;6129137;29;20183;-82
2021/03/09 03:20:31;;;;;;;20.23;7.80;;;10.50;53.80;;;;;;6127432;29;20024;-81
2021/03/09 03:23:33;;;;;;;26.83;7.72;;;10.50;53.90;;;;;;6133330;29;20131;-82
2021/03/09 03:26:38;;;;;;;20.45;6.88;;;10.50;53.90;;;;;;6127583;29;20043;-82
2021/03/09 03:29:39;;;;;;;16.90;7.45;;;10.50;53.90;;;;;;6125859;29;20036;-82
2021/03/09 03:32:41;;;;;;;19.63;7.82;;;10.50;53.90;;;;;;6128816;29;20028;-83
2021/03/09 03:35:44;;;;;;;20.75;8.23;;;10.60;53.90;;;;;;6127187;29;20040;-82
2021/03/09 03:38:45;;;;;;;19.38;8.88;;;10.60;53.80;;;;;;6133440;29;20040;-82
2021/03/09 03:41:46;;;;;;;15.57;7.60;;;10.70;53.60;;;;;;6119834;29;20046;-83
2021/03/09 03:44:47;;;;;;;18.88;7.50;;;10.70;53.40;;;;;;6127337;29;20127;-83
2021/03/09 03:47:57;;;;;;;25.63;8.02;;;10.80;53.00;;;;;;6113064;29;20373;-83
2021/03/09 03:50:59;;;;;;;18.73;8.00;;;10.80;52.70;;;;;;6108827;29;20044;-83
2021/03/09 03:54:32;;;;;;;23.20;8.93;;;10.80;52.50;;;;;;6119370;29;20039;-83
2021/03/09 03:57:43;;;;;;;16.50;7.68;;;10.80;52.50;;;;;;6120802;29;20055;-84
2021/03/09 04:00:45;;;;;;;23.65;8.85;;;10.80;52.50;;;;;;6117617;29;20035;-82
2021/03/09 04:03:50;;;;;;;26.20;9.25;;;10.80;52.40;;;;;;6125353;29;20390;-83
2021/03/09 04:06:53;;;;;;;23.33;8.40;;;10.90;52.40;;;;;;6101083;29;20072;-83
2021/03/09 04:09:56;;;;;;;14.88;7.00;;;10.90;52.30;;;;;;6125737;29;20036;-83
2021/03/09 04:12:57;;;;;;;30.65;8.65;;;11.00;52.30;;;;;;6123699;29;20039;-82
2021/03/09 04:16:01;;;;;;;19.15;7.63;;;11.00;52.10;;;;;;6102282;29;20047;-82
2021/03/09 04:19:04;;;;;;;20.23;8.20;;;11.00;52.00;;;;;;6087816;29;20047;-82
2021/03/09 04:22:06;;;;;;;27.10;8.65;;;11.00;52.00;;;;;;6122503;29;20133;-84
2021/03/09 04:25:08;;;;;;;22.35;8.55;;;11.10;51.90;;;;;;6109460;29;20039;-83
2021/03/09 04:28:12;;;;;;;20.00;9.00;;;11.10;51.80;;;;;;6123881;29;20059;-83
2021/03/09 04:31:13;;;;;;;16.77;7.00;;;11.10;51.60;;;;;;6116803;29;20118;-84
2021/03/09 04:34:15;;;;;;;17.42;7.60;;;11.00;51.30;;;;;;6116103;29;20090;-84
2021/03/09 04:37:17;;;;;;;20.70;8.30;;;11.00;51.30;;;;;;6126364;29;20032;-83
2021/03/09 04:40:18;;;;;;;19.00;8.18;;;11.00;51.20;;;;;;6115621;29;20422;-82
2021/03/09 04:43:19;;;;;;;16.45;7.40;;;10.90;51.10;;;;;;6125845;29;20039;-83
2021/03/09 04:46:22;;;;;;;21.20;8.38;;;10.80;51.10;;;;;;6129413;28;20039;-83
2021/03/09 04:49:23;;;;;;;18.25;7.57;;;10.80;51.60;;;;;;6144323;29;20039;-82
2021/03/09 04:52:25;;;;;;;21.38;8.02;;;10.80;51.00;;;;;;6124644;29;20066;-82
2021/03/09 04:55:27;;;;;;;22.30;8.63;;;10.70;50.90;;;;;;6126888;29;20130;-82
2021/03/09 04:58:28;;;;;;;17.63;8.07;;;10.60;50.90;;;;;;6123389;28;20047;-82
2021/03/09 05:01:29;;;;;;;17.20;6.93;;;10.60;51.00;;;;;;6110604;29;20040;-82
2021/03/09 05:04:30;;;;;;;29.55;9.43;;;10.50;51.10;;;;;;6115508;29;20028;-82
2021/03/09 05:07:31;;;;;;;24.30;8.20;;;10.50;51.30;;;;;;6097081;28;844552;-83
2021/03/09 05:10:32;;;;;;;20.88;8.73;;;10.40;51.30;;;;;;6134950;29;20059;-84
2021/03/09 05:13:33;;;;;;;24.35;7.43;;;10.40;51.30;;;;;;6136093;29;20472;-83
2021/03/09 05:16:34;;;;;;;26.40;10.15;;;10.40;51.40;;;;;;6132451;29;20043;-83
2021/03/09 05:19:35;;;;;;;21.02;8.02;;;10.40;51.40;;;;;;6124873;29;20242;-83
2021/03/09 05:22:37;;;;;;;19.27;7.88;;;10.50;51.30;;;;;;6153833;28;20035;-83
2021/03/09 05:25:39;;;;;;;26.63;8.20;;;10.50;51.30;;;;;;6109491;29;20050;-82
2021/03/09 05:28:39;;;;;;;18.77;8.00;;;10.50;51.20;;;;;;6138018;29;20039;-82
2021/03/09 05:31:40;;;;;;;22.90;8.85;;;10.50;51.30;;;;;;6163663;28;20046;-83
2021/03/09 05:34:43;;;;;;;20.73;8.35;;;10.50;51.20;;;;;;6129714;28;20063;-83
2021/03/09 05:37:45;;;;;;;19.10;7.80;;;10.50;51.20;;;;;;6135413;28;20126;-83
2021/03/09 05:40:46;;;;;;;14.55;6.95;;;10.50;51.30;;;;;;6160442;29;20051;-83
2021/03/09 05:43:48;;;;;;;23.65;9.05;;;10.50;51.40;;;;;;6142511;28;20079;-84
2021/03/09 05:46:49;;;;;;;20.10;7.90;;;10.50;51.30;;;;;;6117369;29;20110;-83
2021/03/09 05:49:50;;;;;;;16.25;7.53;;;10.40;51.40;;;;;;6145057;29;20059;-82
2021/03/09 05:52:51;;;;;;;19.13;8.48;;;10.50;51.60;;;;;;6153797;28;20043;-84
2021/03/09 05:55:52;;;;;;;22.30;8.98;;;10.40;51.50;;;;;;6170242;28;20047;-83
2021/03/09 05:58:53;;;;;;;19.42;8.30;;;10.40;51.50;;;;;;6140943;28;20039;-83
2021/03/09 06:01:54;;;;;;;23.85;8.02;;;10.40;51.50;;;;;;6118433;29;20043;-84
2021/03/09 06:04:55;;;;;;;30.05;9.20;;;10.40;51.40;;;;;;6151387;29;20031;-84
2021/03/09 06:07:58;;;;;;;21.92;8.55;;;10.40;51.40;;;;;;6153765;28;20139;-83
2021/03/09 06:11:13;;;;;;;16.02;7.70;;;10.30;51.40;;;;;;6139882;28;20047;-82
2021/03/09 06:14:17;;;;;;;18.63;8.30;;;10.30;51.50;;;;;;6138355;28;20039;-83
2021/03/09 06:17:24;;;;;;;25.65;9.15;;;10.20;51.50;;;;;;6122934;29;20050;-81
2021/03/09 06:20:29;;;;;;;21.83;8.63;;;10.20;51.60;;;;;;6128214;29;20114;-82
2021/03/09 06:23:30;;;;;;;22.75;8.02;;;10.20;51.60;;;;;;6127231;29;20038;-82
2021/03/09 06:26:39;;;;;;;17.15;8.13;;;10.20;51.60;;;;;;6158767;28;20031;-83
2021/03/09 06:29:44;;;;;;;26.52;9.13;;;10.20;51.60;;;;;;6120752;29;20059;-82
2021/03/09 06:32:46;;;;;;;22.70;8.27;;;10.20;51.60;;;;;;6139012;29;20031;-83
2021/03/09 06:35:47;;;;;;;27.80;8.80;;;10.20;51.60;;;;;;6144259;29;20049;-83
2021/03/09 06:38:54;;;;;;;18.92;8.00;;;10.20;51.70;;;;;;6129157;29;20040;-86
2021/03/09 06:42:00;;;;;;;22.70;7.90;;;10.20;51.80;;;;;;6138236;28;20075;-84
2021/03/09 06:45:10;;;;;;;22.45;8.63;;;10.20;51.90;;;;;;6126183;29;20054;-84
2021/03/09 06:48:22;;;;;;;26.77;9.25;;;10.20;51.80;;;;;;6125401;29;20143;-78
2021/03/09 06:51:37;;;;;;;20.90;8.85;;;10.20;51.80;;;;;;6135578;28;20046;-80
2021/03/09 06:54:48;;;;;;;16.55;8.00;;;10.20;51.70;;;;;;6119072;29;20043;-76
2021/03/09 06:58:14;;;;;;;19.63;8.60;;;10.20;51.70;;;;;;6119391;29;20107;-80
2021/03/09 07:01:19;;;;;;;18.90;7.90;;;10.20;51.90;;;;;;6109023;28;20360;-80
2021/03/09 07:04:21;;;;;;;25.08;9.73;;;10.20;52.00;;;;;;6115189;29;20445;-78
2021/03/09 07:07:29;;;;;;;19.30;8.65;;;10.10;52.00;;;;;;6115498;29;20039;-79
2021/03/09 07:10:31;;;;;;;26.70;9.05;;;10.10;52.00;;;;;;6131448;28;20143;-79
2021/03/09 07:13:33;;;;;;;20.88;8.40;;;10.10;51.90;;;;;;6150465;28;20031;-78
2021/03/09 07:16:36;;;;;;;21.17;8.25;;;10.30;51.90;;;;;;6150641;28;20480;-79
2021/03/09 07:19:42;;;;;;;32.25;9.27;;;10.30;51.70;;;;;;6151180;28;20039;-79
2021/03/09 07:22:45;;;;;;;21.98;8.52;;;10.20;51.50;;;;;;6132705;29;20061;-78
2021/03/09 07:25:51;;;;;;;24.80;9.40;;;10.30;51.60;;;;;;6133938;29;20038;-78
2021/03/09 07:28:52;;;;;;;28.50;9.52;;;10.30;51.50;;;;;;6122552;29;20110;-79
2021/03/09 07:31:56;;;;;;;26.02;9.93;;;10.30;51.50;;;;;;6133790;29;20105;-79
2021/03/09 07:35:01;;;;;;;21.30;9.25;;;10.30;51.50;;;;;;6133696;29;20043;-79
2021/03/09 07:38:03;;;;;;;20.67;8.32;;;10.40;51.40;;;;;;6133437;28;20039;-80
2021/03/09 07:41:05;;;;;;;30.38;9.43;;;10.40;51.30;;;;;;6139954;28;20044;-79
2021/03/09 07:44:06;;;;;;;21.50;8.90;;;10.50;51.10;;;;;;6145313;28;20043;-80
2021/03/09 07:47:09;;;;;;;30.10;8.63;;;10.50;51.00;;;;;;6143788;29;20118;-79
2021/03/09 07:50:14;;;;;;;27.50;10.00;;;10.50;50.70;;;;;;6131930;29;20054;-78
2021/03/09 07:53:22;;;;;;;24.08;7.93;;;10.50;50.60;;;;;;6137900;28;20093;-78
2021/03/09 07:56:23;;;;;;;23.23;8.63;;;10.60;50.70;;;;;;6141001;28;20047;-78
2021/03/09 07:59:24;;;;;;;23.52;10.30;;;10.70;50.60;;;;;;6144725;28;20035;-78
2021/03/09 08:02:56;;;;;;;32.03;10.02;;;10.70;50.50;;;;;;6129762;28;20147;-77
2021/03/09 08:06:06;;;;;;;24.65;9.75;;;10.70;50.50;;;;;;6133274;29;20071;-78
2021/03/09 08:09:27;;;;;;;20.90;8.77;;;10.80;50.40;;;;;;6135032;29;20050;-79
2021/03/09 08:12:29;;;;;;;25.55;9.88;;;10.90;50.30;;;;;;6147646;29;20122;-79
2021/03/09 08:15:29;;;;;;;22.33;9.27;;;11.00;50.10;;;;;;6141210;29;20126;-78
2021/03/09 08:18:33;;;;;;;28.52;10.05;;;11.10;49.70;;;;;;6134989;29;20093;-79
2021/03/09 08:21:57;;;;;;;24.38;10.38;;;11.10;49.50;;;;;;6122620;29;20473;-79
2021/03/09 08:24:58;;;;;;;36.13;10.45;;;11.20;49.40;;;;;;6120372;29;20039;-77
2021/03/09 08:28:30;;;;;;;33.58;10.70;;;11.30;49.30;;;;;;6124864;29;20141;-78
2021/03/09 08:31:31;;;;;;;20.38;9.88;;;11.40;49.30;;;;;;6113442;29;20362;-77
2021/03/09 08:34:32;;;;;;;20.05;9.85;;;11.60;49.10;;;;;;6153034;29;20053;-78
2021/03/09 08:37:33;;;;;;;24.17;10.35;;;11.70;48.80;;;;;;6137751;29;20055;-79
2021/03/09 08:40:36;;;;;;;24.40;10.80;;;11.80;48.40;;;;;;6139151;28;20361;-79
2021/03/09 08:43:38;;;;;;;22.35;9.25;;;11.90;48.40;;;;;;6125857;29;20381;-78
2021/03/09 08:47:04;;;;;;;26.10;9.93;;;12.10;48.20;;;;;;6132928;29;20450;-79
2021/03/09 08:50:05;;;;;;;24.50;10.23;;;12.10;48.00;;;;;;6129772;29;20119;-79
2021/03/09 08:53:27;;;;;;;27.55;10.63;;;12.20;47.60;;;;;;6150441;29;20043;-80
2021/03/09 08:56:41;;;;;;;32.17;12.20;;;12.30;47.50;;;;;;6108083;29;20039;-79
2021/03/09 08:59:47;;;;;;;33.75;11.55;;;12.40;47.20;;;;;;6126533;29;20504;-78
2021/03/09 09:02:49;;;;;;;28.40;11.65;;;12.50;47.10;;;;;;6120332;29;20047;-79
2021/03/09 09:05:53;;;;;;;24.73;10.23;;;12.50;46.90;;;;;;6130464;29;20121;-78
2021/03/09 09:08:55;;;;;;;24.75;11.25;;;12.60;46.90;;;;;;6130120;28;20106;-78
2021/03/09 09:11:56;;;;;;;27.63;11.15;;;12.70;46.70;;;;;;6129168;29;20461;-78
2021/03/09 09:15:11;;;;;;;26.50;11.45;;;12.60;46.70;;;;;;6113344;28;20043;-80
2021/03/09 09:18:12;;;;;;;28.17;10.15;;;12.70;46.60;;;;;;6134935;29;20082;-78
2021/03/09 09:21:13;;;;;;;21.05;9.70;;;12.80;46.50;;;;;;6114630;28;20465;-78
2021/03/09 09:24:23;;;;;;;27.02;10.85;;;12.90;46.30;;;;;;6130204;29;20448;-77
2021/03/09 09:27:25;;;;;;;25.27;10.30;;;13.00;46.10;;;;;;6114592;29;20035;-78
2021/03/09 09:30:41;;;;;;;26.92;10.75;;;13.20;45.80;;;;;;6114603;28;20050;-77
2021/03/09 09:33:53;;;;;;;30.67;10.85;;;13.30;45.60;;;;;;6137209;29;20122;-79
2021/03/09 09:36:55;;;;;;;30.80;10.45;;;13.40;45.70;;;;;;6130020;28;20049;-79
2021/03/09 09:40:03;;;;;;;24.08;10.90;;;13.50;45.50;;;;;;6127096;29;20039;-77
2021/03/09 09:43:04;;;;;;;24.58;11.05;;;13.60;45.10;;;;;;6123906;28;20035;-78
2021/03/09 09:46:15;;;;;;;22.77;11.48;;;13.70;44.90;;;;;;6131725;28;20031;-79
2021/03/09 09:49:16;;;;;;;30.27;11.60;;;13.70;44.70;;;;;;6115227;29;20066;-78
2021/03/09 09:52:19;;;;;;;27.67;12.10;;;13.70;44.70;;;;;;6114356;28;20035;-78
2021/03/09 09:55:21;;;;;;;25.70;11.00;;;13.70;44.70;;;;;;6136433;28;20127;-78
2021/03/09 09:58:37;;;;;;;29.05;11.65;;;13.80;44.90;;;;;;6129960;28;20043;-78
2021/03/09 10:01:38;;;;;;;26.70;11.98;;;13.90;44.60;;;;;;6108535;29;20046;-79
2021/03/09 10:04:39;;;;;;;24.48;9.82;;;14.00;44.40;;;;;;6105106;29;20122;-79
2021/03/09 10:07:41;;;;;;;31.65;10.40;;;14.00;44.10;;;;;;6109759;28;20062;-79
2021/03/09 10:10:57;;;;;;;39.50;13.20;;;13.90;42.80;;;;;;6132663;29;20058;-79
2021/03/09 10:14:05;;;;;;;24.92;8.80;;;13.80;43.10;;;;;;6102776;29;20576;-79
2021/03/09 10:17:18;;;;;;;24.55;9.80;;;13.80;43.20;;;;;;6137343;29;20098;-79
2021/03/09 10:20:21;;;;;;;24.20;9.52;;;13.80;42.80;;;;;;6138186;29;20035;-79
2021/03/09 10:23:23;;;;;;;24.90;9.07;;;13.80;42.60;;;;;;6137767;29;20042;-79
2021/03/09 10:26:40;;;;;;;22.73;10.50;;;13.80;42.30;;;;;;6135895;29;20039;-79
2021/03/09 10:29:41;;;;;;;22.25;10.50;;;13.90;42.00;;;;;;6136108;29;20043;-80
2021/03/09 10:32:51;;;;;;;21.25;9.90;;;13.80;41.90;;;;;;6135620;28;20514;-78
2021/03/09 10:36:06;;;;;;;26.92;10.68;;;13.90;42.00;;;;;;6135682;29;20102;-79
2021/03/09 10:39:11;;;;;;;23.52;10.05;;;14.10;41.60;;;;;;6133914;28;20043;-79
2021/03/09 10:42:24;;;;;;;20.58;9.43;;;14.30;41.10;;;;;;6118919;29;20049;-79
2021/03/09 10:45:28;;;;;;;23.40;10.02;;;14.60;40.60;;;;;;6133344;28;21476;-80
2021/03/09 10:48:29;;;;;;;28.60;10.57;;;14.90;40.20;;;;;;6136268;29;20046;-80
2021/03/09 10:51:30;;;;;;;19.80;9.43;;;15.00;39.80;;;;;;6135964;29;20076;-77
2021/03/09 10:54:32;;;;;;;28.42;10.68;;;15.10;39.60;;;;;;6136612;28;20043;-78
2021/03/09 10:57:33;;;;;;;24.77;10.75;;;15.10;39.50;;;;;;6153224;28;20037;-78
2021/03/09 11:00:34;;;;;;;23.30;9.55;;;15.10;39.40;;;;;;6136829;28;20472;-78
2021/03/09 11:03:35;;;;;;;24.40;10.13;;;15.00;39.30;;;;;;6152302;28;20103;-79
2021/03/09 11:06:36;;;;;;;26.73;10.25;;;15.10;39.40;;;;;;6128374;29;20368;-79
2021/03/09 11:09:38;;;;;;;24.23;9.98;;;15.20;39.50;;;;;;6150373;28;20066;-80
2021/03/09 11:12:40;;;;;;;21.10;9.98;;;15.40;39.10;;;;;;6136082;29;20046;-78
2021/03/09 11:15:41;;;;;;;18.10;9.38;;;15.70;38.80;;;;;;6148740;29;20095;-79
2021/03/09 11:18:44;;;;;;;27.60;10.88;;;16.00;38.10;;;;;;6142118;28;20035;-78
2021/03/09 11:21:45;;;;;;;22.73;9.68;;;16.20;37.80;;;;;;6131765;28;20137;-79
2021/03/09 11:24:47;;;;;;;23.85;10.55;;;16.40;37.60;;;;;;6142097;29;20508;-80
2021/03/09 11:27:48;;;;;;;23.70;10.85;;;16.60;36.80;;;;;;6143518;28;20035;-79
2021/03/09 11:30:49;;;;;;;23.92;10.82;;;16.70;36.10;;;;;;6114909;28;20114;-80
2021/03/09 11:33:50;;;;;;;21.00;9.82;;;16.90;35.60;;;;;;6146637;29;20054;-79
2021/03/09 11:36:53;;;;;;;23.85;10.93;;;16.90;35.40;;;;;;6149517;28;20050;-79
2021/03/09 11:39:54;;;;;;;23.02;10.50;;;17.00;35.40;;;;;;6137043;28;20035;-80
2021/03/09 11:42:55;;;;;;;25.13;10.95;;;17.20;34.40;;;;;;6150459;28;20039;-80
2021/03/09 11:45:56;;;;;;;25.92;11.05;;;17.40;34.30;;;;;;6142742;28;20101;-80
2021/03/09 11:48:57;;;;;;;27.50;10.68;;;17.40;34.30;;;;;;6142431;28;20465;-79
2021/03/09 11:51:58;;;;;;;21.98;10.48;;;17.50;33.80;;;;;;6136513;28;20126;-79
2021/03/09 11:54:59;;;;;;;20.73;10.82;;;17.70;33.20;;;;;;6128966;28;20117;-78
2021/03/09 11:58:00;;;;;;;26.63;11.18;;;17.90;32.80;;;;;;6140520;28;20479;-79
2021/03/09 12:01:02;;;;;;;21.75;10.05;;;18.30;32.50;;;;;;6146870;29;20098;-79
2021/03/09 12:04:04;;;;;;;27.08;10.88;;;18.50;31.40;;;;;;6131925;29;20070;-78
2021/03/09 12:07:05;;;;;;;22.63;10.43;;;18.50;30.90;;;;;;6130692;29;20062;-79
2021/03/09 12:10:07;;;;;;;23.45;10.35;;;18.50;31.00;;;;;;6114599;28;20499;-79
2021/03/09 12:13:08;;;;;;;23.38;10.60;;;18.80;30.50;;;;;;6134531;28;20035;-80
2021/03/09 12:16:09;;;;;;;23.13;10.52;;;19.10;30.00;;;;;;6117422;28;20047;-79
2021/03/09 12:19:10;;;;;;;20.40;10.43;;;19.30;29.70;;;;;;6118534;28;20027;-80
2021/03/09 12:22:11;;;;;;;22.23;10.40;;;19.40;29.40;;;;;;6130238;28;20053;-79
2021/03/09 12:25:13;;;;;;;19.52;9.88;;;19.60;29.30;;;;;;6149866;28;20039;-77
2021/03/09 12:28:14;;;;;;;24.67;10.60;;;19.80;29.10;;;;;;6156835;28;20043;-79
2021/03/09 12:31:15;;;;;;;24.15;11.13;;;19.80;28.80;;;;;;6145775;28;20035;-79
2021/03/09 12:34:16;;;;;;;22.55;10.35;;;19.80;28.90;;;;;;6116981;28;20035;-79
2021/03/09 12:37:17;;;;;;;25.05;11.10;;;20.00;28.80;;;;;;6124327;28;20468;-79
2021/03/09 12:40:18;;;;;;;20.50;10.50;;;20.20;28.10;;;;;;6116902;28;20132;-80
2021/03/09 12:43:20;;;;;;;22.63;9.73;;;20.10;28.00;;;;;;6140745;28;20098;-80
2021/03/09 12:46:21;;;;;;;24.70;10.40;;;20.10;28.10;;;;;;6149434;28;20361;-79
2021/03/09 12:49:22;;;;;;;27.23;10.85;;;19.80;28.10;;;;;;6106440;29;20042;-78
2021/03/09 12:52:24;;;;;;;22.27;9.63;;;19.60;28.40;;;;;;6131885;29;20027;-78
2021/03/09 12:55:26;;;;;;;22.40;10.00;;;19.70;28.30;;;;;;6098423;29;20127;-78
2021/03/09 12:58:27;;;;;;;19.50;9.80;;;20.10;28.10;;;;;;6114472;28;20439;-79
2021/03/09 13:01:30;;;;;;;25.98;10.40;;;20.60;27.60;;;;;;6136178;28;20031;-78
2021/03/09 13:04:31;;;;;;;19.85;9.00;;;21.20;27.20;;;;;;6146656;28;20044;-80
2021/03/09 13:07:33;;;;;;;21.02;10.52;;;21.70;26.30;;;;;;6146037;28;20054;-79
2021/03/09 13:10:34;;;;;;;17.05;9.40;;;22.10;25.40;;;;;;6116295;28;20051;-79
2021/03/09 13:13:35;;;;;;;18.98;8.90;;;21.90;25.20;;;;;;6123993;29;20032;-78
2021/03/09 13:16:37;;;;;;;18.77;8.80;;;20.90;25.90;;;;;;6114015;28;20049;-79
2021/03/09 13:19:39;;;;;;;25.27;9.82;;;20.10;26.70;;;;;;6110487;29;20501;-79
2021/03/09 13:22:41;;;;;;;23.02;9.73;;;19.40;27.50;;;;;;6126420;28;20051;-78
2021/03/09 13:25:42;;;;;;;22.00;9.90;;;18.80;28.20;;;;;;6132737;28;20054;-78
2021/03/09 13:28:43;;;;;;;20.95;9.02;;;18.30;28.90;;;;;;6118254;28;20118;-78
2021/03/09 13:31:44;;;;;;;23.85;9.88;;;18.00;29.40;;;;;;6120562;28;20055;-78
2021/03/09 13:34:45;;;;;;;21.83;8.52;;;17.70;29.60;;;;;;6111498;29;20102;-78
2021/03/09 13:37:47;;;;;;;18.48;7.95;;;17.50;29.70;;;;;;6113857;28;20075;-77
2021/03/09 13:40:48;;;;;;;19.23;9.02;;;17.40;30.00;;;;;;6142786;28;20036;-79
2021/03/09 13:43:49;;;;;;;28.58;9.32;;;17.30;30.00;;;;;;6134665;28;20035;-79
2021/03/09 13:46:52;;;;;;;22.55;8.15;;;17.20;29.90;;;;;;6152736;28;20420;-79
2021/03/09 13:49:53;;;;;;;18.55;8.00;;;17.10;30.20;;;;;;6137888;28;20045;-79
2021/03/09 13:52:54;;;;;;;23.95;9.38;;;17.00;30.30;;;;;;6152090;28;20032;-79
2021/03/09 13:55:55;;;;;;;22.88;8.60;;;16.90;30.20;;;;;;6136581;28;20043;-78
2021/03/09 13:58:56;;;;;;;15.85;7.18;;;16.80;30.30;;;;;;6139807;29;20031;-78
2021/03/09 14:01:57;;;;;;;20.13;8.57;;;16.80;30.40;;;;;;6119677;29;20039;-78
2021/03/09 14:04:58;;;;;;;17.35;8.13;;;16.60;30.30;;;;;;6134531;28;20047;-79
2021/03/09 14:08:00;;;;;;;20.83;8.90;;;16.60;30.40;;;;;;6141709;28;20047;-79
2021/03/09 14:11:02;;;;;;;16.38;7.70;;;16.50;30.40;;;;;;6127861;29;20089;-78
2021/03/09 14:14:04;;;;;;;18.30;7.88;;;16.50;30.60;;;;;;6138713;29;20039;-79
2021/03/09 14:17:05;;;;;;;18.05;7.85;;;16.50;30.50;;;;;;6139121;29;20050;-79
2021/03/09 14:20:08;;;;;;;15.07;7.60;;;16.50;30.30;;;;;;6126535;29;20117;-79
2021/03/09 14:23:10;;;;;;;17.45;7.78;;;16.50;30.20;;;;;;6116196;29;20032;-79
2021/03/09 14:26:11;;;;;;;14.48;8.07;;;16.50;30.80;;;;;;6099278;29;20036;-79
2021/03/09 14:29:12;;;;;;;15.73;8.00;;;16.40;30.20;;;;;;6109396;29;20031;-78
2021/03/09 14:32:13;;;;;;;16.48;8.23;;;16.30;30.10;;;;;;6135384;29;20055;-78
2021/03/09 14:35:16;;;;;;;13.55;6.40;;;16.20;30.10;;;;;;6135287;28;20039;-78
2021/03/09 14:38:17;;;;;;;20.25;9.15;;;16.20;30.00;;;;;;6123547;28;20051;-79
2021/03/09 14:41:19;;;;;;;17.73;8.20;;;16.20;30.20;;;;;;6134542;28;20516;-79
2021/03/09 14:44:20;;;;;;;22.48;8.40;;;16.20;30.30;;;;;;6134149;29;20086;-79
2021/03/09 14:47:21;;;;;;;22.65;7.80;;;16.20;30.90;;;;;;6151504;28;20031;-78
2021/03/09 14:50:25;;;;;;;19.65;8.27;;;16.20;30.20;;;;;;6116360;29;20062;-79
2021/03/09 14:53:26;;;;;;;21.27;8.25;;;16.10;30.00;;;;;;6130564;29;20075;-79
2021/03/09 14:56:27;;;;;;;16.02;8.30;;;16.00;29.90;;;;;;6133283;28;20050;-79
2021/03/09 14:59:29;;;;;;;13.98;6.82;;;16.00;29.90;;;;;;6114182;29;20027;-80
2021/03/09 15:02:29;;;;;;;13.90;6.28;;;16.00;30.70;;;;;;6133569;29;20461;-79
2021/03/09 15:05:31;;;;;;;20.50;8.55;;;15.90;30.10;;;;;;6132942;29;20102;-79
2021/03/09 15:08:32;;;;;;;13.85;6.70;;;15.90;30.10;;;;;;6134132;28;20043;-79
2021/03/09 15:11:33;;;;;;;18.42;8.77;;;15.90;30.30;;;;;;6114580;28;20035;-78
2021/03/09 15:14:34;;;;;;;18.67;7.75;;;15.80;30.30;;;;;;6134724;28;20113;-78
2021/03/09 15:17:35;;;;;;;17.85;7.32;;;15.80;30.30;;;;;;6115968;29;20035;-78
2021/03/09 15:20:37;;;;;;;15.73;7.55;;;15.90;30.50;;;;;;6115054;29;20410;-80
2021/03/09 15:23:38;;;;;;;15.63;8.15;;;15.80;30.30;;;;;;6117916;28;20035;-79
2021/03/09 15:26:39;;;;;;;18.63;8.25;;;15.80;30.30;;;;;;6100117;29;20406;-79
2021/03/09 15:29:42;;;;;;;15.18;7.82;;;15.70;30.60;;;;;;6108135;29;20114;-78
2021/03/09 15:32:42;;;;;;;17.13;7.80;;;15.70;30.60;;;;;;6114079;29;20070;-78
2021/03/09 15:35:44;;;;;;;16.35;6.55;;;15.60;30.70;;;;;;6131596;29;20114;-77
2021/03/09 15:38:45;;;;;;;19.42;8.40;;;15.60;30.70;;;;;;6133170;29;20099;-78